createdAt,value
2018-12-14T00:00:25.709Z,9.83
2018-12-14T00:02:54.178Z,8.70
2018-12-14T00:05:22.630Z,10.33
2018-12-14T00:07:51.056Z,9.73
2018-12-14T00:10:19.999Z,9.20
2018-12-14T00:12:48.421Z,8.60
2018-12-14T00:15:16.900Z,10.37
2018-12-14T00:17:45.317Z,9.03
2018-12-14T00:20:13.754Z,9.13
2018-12-14T00:22:42.198Z,9.43
2018-12-14T00:25:10.742Z,9.10
2018-12-14T00:27:39.173Z,9.50
2018-12-14T00:30:08.800Z,9.90
2018-12-14T00:32:37.246Z,10.10
2018-12-14T00:35:06.197Z,10.00
2018-12-14T00:37:34.610Z,9.83
2018-12-14T00:40:04.349Z,9.37
2018-12-14T00:42:32.836Z,9.73
2018-12-14T00:45:01.306Z,8.63
2018-12-14T00:47:29.723Z,9.43
2018-12-14T00:49:58.160Z,9.63
2018-12-14T00:52:26.602Z,9.83
2018-12-14T00:54:55.018Z,9.87
2018-12-14T00:57:23.436Z,9.90
2018-12-14T00:59:51.863Z,9.70
2018-12-14T01:02:35.132Z,9.87
2018-12-14T01:05:03.804Z,9.03
2018-12-14T01:07:32.251Z,10.30
2018-12-14T01:10:00.972Z,10.57
2018-12-14T01:12:29.467Z,10.67
2018-12-14T01:14:57.895Z,9.40
2018-12-14T01:17:26.485Z,9.40
2018-12-14T01:19:54.926Z,10.17
2018-12-14T01:22:23.353Z,9.27
2018-12-14T01:24:51.760Z,11.00
2018-12-14T01:27:20.200Z,9.73
2018-12-14T01:29:48.747Z,10.10
2018-12-14T01:32:17.225Z,9.87
2018-12-14T01:34:45.639Z,9.77
2018-12-14T01:37:14.159Z,9.67
2018-12-14T01:39:42.593Z,10.00
2018-12-14T01:42:11.041Z,10.13
2018-12-14T01:44:39.481Z,9.57
2018-12-14T01:47:07.908Z,9.37
2018-12-14T01:49:36.358Z,9.50
2018-12-14T01:52:04.809Z,9.90
2018-12-14T01:54:33.227Z,9.37
2018-12-14T01:57:01.648Z,10.00
2018-12-14T01:59:30.079Z,10.17
2018-12-14T02:01:58.559Z,9.93
2018-12-14T02:04:26.977Z,10.03
2018-12-14T02:06:55.423Z,9.60
2018-12-14T02:09:23.901Z,9.93
2018-12-14T02:11:52.335Z,10.03
2018-12-14T02:14:20.786Z,10.77
2018-12-14T02:16:49.218Z,10.13
2018-12-14T02:19:17.622Z,10.20
2018-12-14T02:21:46.076Z,8.40
2018-12-14T02:24:14.502Z,9.23
2018-12-14T02:26:42.931Z,10.67
2018-12-14T02:29:11.327Z,9.60
2018-12-14T02:31:39.778Z,10.30
2018-12-14T02:34:08.192Z,10.87
2018-12-14T02:36:36.902Z,11.27
2018-12-14T02:39:06.185Z,10.30
2018-12-14T02:41:34.758Z,10.47
2018-12-14T02:44:03.327Z,11.80
2018-12-14T02:46:31.879Z,10.50
2018-12-14T02:49:00.303Z,11.10
2018-12-14T02:51:28.787Z,10.67
2018-12-14T02:53:57.216Z,11.47
2018-12-14T02:56:25.627Z,11.07
2018-12-14T02:58:54.034Z,11.27
2018-12-14T03:01:22.504Z,10.60
2018-12-14T03:03:50.914Z,9.83
2018-12-14T03:06:19.341Z,9.13
2018-12-14T03:08:47.841Z,7.63
2018-12-14T03:11:16.278Z,8.27
2018-12-14T03:13:44.671Z,7.10
2018-12-14T03:16:13.103Z,6.23
2018-12-14T03:18:41.506Z,6.20
2018-12-14T03:21:09.906Z,6.70
2018-12-14T03:23:38.331Z,5.83
2018-12-14T03:26:06.779Z,6.50
2018-12-14T03:28:35.200Z,6.13
2018-12-14T03:31:03.600Z,6.00
2018-12-14T03:33:32.023Z,5.43
2018-12-14T03:36:00.431Z,5.43
2018-12-14T03:38:28.861Z,6.43
2018-12-14T03:40:57.334Z,6.17
2018-12-14T03:43:25.766Z,6.13
2018-12-14T03:45:54.212Z,6.60
2018-12-14T03:48:22.656Z,5.93
2018-12-14T03:50:51.068Z,6.10
2018-12-14T03:53:19.494Z,6.37
2018-12-14T03:55:47.905Z,5.77
2018-12-14T03:58:16.447Z,5.40
2018-12-14T04:00:45.135Z,6.57
2018-12-14T04:03:13.545Z,6.10
2018-12-14T04:05:41.978Z,6.80
2018-12-14T04:08:10.400Z,6.17
2018-12-14T04:10:38.804Z,6.50
2018-12-14T04:13:07.249Z,6.23
2018-12-14T04:15:35.772Z,6.17
2018-12-14T04:18:04.188Z,5.57
2018-12-14T04:20:32.609Z,5.27
2018-12-14T04:23:01.031Z,6.40
2018-12-14T04:25:29.491Z,6.60
2018-12-14T04:27:57.930Z,6.83
2018-12-14T04:30:26.466Z,6.77
2018-12-14T04:32:54.927Z,6.10
2018-12-14T04:35:23.380Z,5.57
2018-12-14T04:37:51.780Z,6.03
2018-12-14T04:40:20.367Z,6.10
2018-12-14T04:42:49.153Z,6.27
2018-12-14T04:45:17.795Z,6.70
2018-12-14T04:47:46.232Z,6.63
2018-12-14T04:50:14.672Z,5.60
2018-12-14T04:52:43.100Z,5.90
2018-12-14T04:55:11.550Z,6.73
2018-12-14T04:57:39.949Z,5.80
2018-12-14T05:00:08.774Z,6.23
2018-12-14T05:02:37.209Z,7.20
2018-12-14T05:05:05.798Z,7.03
2018-12-14T05:07:34.242Z,5.83
2018-12-14T05:10:02.676Z,6.20
2018-12-14T05:12:31.133Z,6.70
2018-12-14T05:14:59.574Z,6.53
2018-12-14T05:17:28.298Z,6.50
2018-12-14T05:19:56.706Z,6.40
2018-12-14T05:22:25.159Z,6.30
2018-12-14T05:24:53.573Z,6.67
2018-12-14T05:27:22.159Z,5.80
2018-12-14T05:29:50.793Z,6.43
2018-12-14T05:32:19.253Z,6.27
2018-12-14T05:34:47.687Z,6.20
2018-12-14T05:37:16.115Z,7.27
2018-12-14T05:39:44.522Z,5.90
2018-12-14T05:42:12.996Z,6.27
2018-12-14T05:44:41.399Z,5.63
2018-12-14T05:47:09.839Z,5.90
2018-12-14T05:49:38.565Z,7.50
2018-12-14T05:52:07.114Z,6.63
2018-12-14T05:54:36.226Z,6.97
2018-12-14T05:57:04.668Z,6.80
2018-12-14T05:59:33.109Z,7.80
2018-12-14T06:02:01.650Z,6.90
2018-12-14T06:04:30.117Z,7.23
2018-12-14T06:06:58.545Z,6.23
2018-12-14T06:09:27.049Z,7.27
2018-12-14T06:11:55.499Z,9.03
2018-12-14T06:14:23.945Z,7.37
2018-12-14T06:16:52.406Z,7.30
2018-12-14T06:19:20.938Z,6.97
2018-12-14T06:21:49.342Z,8.03
2018-12-14T06:24:17.759Z,7.40
2018-12-14T06:26:46.202Z,7.30
2018-12-14T06:29:14.625Z,7.43
2018-12-14T06:31:43.052Z,7.37
2018-12-14T06:34:11.524Z,7.60
2018-12-14T06:36:39.943Z,7.30
2018-12-14T06:39:08.388Z,7.03
2018-12-14T06:41:38.098Z,7.63
2018-12-14T06:44:06.553Z,6.77
2018-12-14T06:46:34.954Z,7.70
2018-12-14T06:49:03.389Z,7.97
2018-12-14T06:51:31.820Z,7.37
2018-12-14T06:54:00.238Z,7.40
2018-12-14T06:56:28.734Z,7.20
2018-12-14T06:58:57.173Z,6.70
2018-12-14T07:01:25.612Z,7.40
2018-12-14T07:03:54.029Z,7.63
2018-12-14T07:06:22.520Z,7.70
2018-12-14T07:08:50.910Z,8.03
2018-12-14T07:11:19.334Z,8.13
2018-12-14T07:13:47.746Z,7.83
2018-12-14T07:16:16.319Z,7.67
2018-12-14T07:18:44.720Z,8.47
2018-12-14T07:21:13.130Z,8.87
2018-12-14T07:23:41.558Z,8.60
2018-12-14T07:26:09.950Z,8.20
2018-12-14T07:28:38.378Z,8.30
2018-12-14T07:31:06.804Z,8.67
2018-12-14T07:33:35.216Z,8.10
2018-12-14T07:36:03.610Z,8.33
2018-12-14T07:38:32.249Z,8.33
2018-12-14T07:41:00.669Z,9.20
2018-12-14T07:43:29.167Z,8.00
2018-12-14T07:45:57.688Z,7.73
2018-12-14T07:48:26.107Z,8.57
2018-12-14T07:50:54.526Z,9.93
2018-12-14T07:53:23.132Z,7.83
2018-12-14T07:55:51.530Z,8.23
2018-12-14T07:58:19.952Z,8.13
2018-12-14T08:00:48.834Z,7.20
2018-12-14T08:03:17.225Z,8.90
2018-12-14T08:05:45.646Z,8.83
2018-12-14T08:08:14.080Z,7.73
2018-12-14T08:10:42.522Z,7.77
2018-12-14T08:13:11.061Z,9.40
2018-12-14T08:15:39.518Z,9.30
2018-12-14T08:18:07.942Z,8.37
2018-12-14T08:20:36.364Z,8.23
2018-12-14T08:23:04.769Z,7.67
2018-12-14T08:25:33.204Z,8.17
2018-12-14T08:28:01.614Z,9.47
2018-12-14T08:30:30.210Z,9.07
2018-12-14T08:32:58.645Z,8.43
2018-12-14T08:35:27.058Z,11.70
2018-12-14T08:37:55.469Z,10.07
2018-12-14T08:40:23.975Z,11.97
2018-12-14T08:42:52.410Z,11.87
2018-12-14T08:45:20.808Z,10.40
2018-12-14T08:47:49.454Z,9.27
2018-12-14T08:50:17.890Z,8.87
2018-12-14T08:52:46.309Z,8.77
2018-12-14T08:55:14.843Z,8.77
2018-12-14T08:57:43.256Z,9.57
2018-12-14T09:00:12.019Z,9.83
2018-12-14T09:02:40.471Z,9.20
2018-12-14T09:05:08.883Z,11.10
2018-12-14T09:07:37.312Z,9.07
2018-12-14T09:10:06.507Z,9.13
2018-12-14T09:12:34.933Z,8.50
2018-12-14T09:15:03.587Z,8.80
2018-12-14T09:17:32.010Z,9.77
2018-12-14T09:20:00.715Z,9.80
2018-12-14T09:22:29.184Z,9.27
2018-12-14T09:24:57.642Z,9.00
2018-12-14T09:27:26.152Z,8.80
2018-12-14T09:29:54.614Z,11.83
2018-12-14T09:32:23.137Z,10.00
2018-12-14T09:34:51.691Z,8.77
2018-12-14T09:37:20.146Z,8.97
2018-12-14T09:39:48.629Z,10.07
2018-12-14T09:42:17.044Z,9.90
2018-12-14T09:44:45.465Z,9.07
2018-12-14T09:47:13.861Z,9.93
2018-12-14T09:49:42.265Z,9.70
2018-12-14T09:52:10.923Z,10.80
2018-12-14T09:54:39.335Z,10.67
2018-12-14T09:57:07.729Z,10.63
2018-12-14T09:59:36.142Z,10.83
2018-12-14T10:02:04.560Z,10.53
2018-12-14T10:04:32.974Z,10.17
2018-12-14T10:07:01.403Z,10.17
2018-12-14T10:09:29.821Z,10.43
2018-12-14T10:11:58.263Z,11.10
2018-12-14T10:14:26.658Z,11.73
2018-12-14T10:16:55.077Z,11.10
2018-12-14T10:19:23.520Z,9.90
2018-12-14T10:21:51.934Z,10.40
2018-12-14T10:24:20.338Z,12.07
2018-12-14T10:26:48.779Z,11.40
2018-12-14T10:29:17.190Z,10.97
2018-12-14T10:31:45.961Z,10.97
2018-12-14T10:34:14.378Z,11.47
2018-12-14T10:36:42.910Z,12.37
2018-12-14T10:39:11.357Z,12.03
2018-12-14T10:41:39.795Z,11.60
2018-12-14T10:44:08.213Z,12.03
2018-12-14T10:46:36.752Z,10.97
2018-12-14T10:49:05.323Z,12.53
2018-12-14T10:51:33.887Z,10.17
2018-12-14T10:54:02.294Z,10.60
2018-12-14T10:56:30.733Z,10.70
2018-12-14T10:58:59.126Z,12.10
2018-12-14T11:01:32.968Z,10.93
2018-12-14T11:04:01.371Z,11.40
2018-12-14T11:06:29.821Z,10.80
2018-12-14T11:08:58.274Z,10.90
2018-12-14T11:11:26.794Z,11.47
2018-12-14T11:13:55.226Z,11.43
2018-12-14T11:16:23.643Z,11.53
2018-12-14T11:18:52.057Z,10.90
2018-12-14T11:21:20.573Z,10.63
2018-12-14T11:23:48.984Z,10.73
2018-12-14T11:26:17.445Z,13.33
2018-12-14T11:28:45.842Z,12.18
2018-12-14T11:31:14.254Z,12.77
2018-12-14T11:33:42.692Z,10.13
2018-12-14T11:36:11.110Z,11.63
2018-12-14T11:38:39.668Z,10.00
2018-12-14T11:41:08.102Z,10.33
2018-12-14T11:43:36.534Z,10.37
2018-12-14T11:46:04.951Z,11.27
2018-12-14T11:48:33.414Z,10.33
2018-12-14T11:51:01.818Z,9.70
2018-12-14T11:53:30.400Z,9.30
2018-12-14T11:55:58.857Z,9.73
2018-12-14T11:58:27.285Z,9.13
2018-12-14T12:00:55.690Z,8.73
2018-12-14T12:03:24.118Z,8.87
2018-12-14T12:05:52.688Z,8.87
2018-12-14T12:08:21.573Z,8.60
2018-12-14T12:10:50.053Z,8.87
2018-12-14T12:13:18.432Z,8.87
2018-12-14T12:15:46.866Z,10.00
2018-12-14T12:18:15.261Z,9.47
2018-12-14T12:20:43.662Z,9.13
2018-12-14T12:23:12.090Z,8.47
2018-12-14T12:25:40.463Z,9.07
2018-12-14T12:28:08.899Z,9.53
2018-12-14T12:30:37.472Z,9.10
2018-12-14T12:33:05.904Z,9.00
2018-12-14T12:35:34.331Z,9.37
2018-12-14T12:38:02.737Z,10.20
2018-12-14T12:40:31.162Z,9.67
2018-12-14T12:42:59.583Z,9.73
2018-12-14T12:45:28.009Z,9.33
2018-12-14T12:47:56.418Z,8.60
2018-12-14T12:50:24.814Z,8.20
2018-12-14T12:52:53.266Z,8.97
2018-12-14T12:55:21.789Z,10.87
2018-12-14T12:57:50.274Z,9.80
2018-12-14T13:00:18.798Z,10.00
2018-12-14T13:02:47.347Z,9.13
2018-12-14T13:05:15.753Z,9.07
2018-12-14T13:07:44.201Z,9.00
2018-12-14T13:10:12.677Z,8.83
2018-12-14T13:12:41.084Z,8.50
2018-12-14T13:15:09.554Z,7.93
2018-12-14T13:17:37.968Z,8.70
2018-12-14T13:20:06.526Z,8.83
2018-12-14T13:22:34.945Z,8.63
2018-12-14T13:25:03.586Z,9.70
2018-12-14T13:27:32.007Z,9.23
2018-12-14T13:30:00.415Z,8.77
2018-12-14T13:32:28.907Z,9.23
2018-12-14T13:34:57.317Z,8.80
2018-12-14T13:37:25.890Z,9.77
2018-12-14T13:39:54.324Z,8.10
2018-12-14T13:42:22.798Z,8.93
2018-12-14T13:44:51.548Z,8.77
2018-12-14T13:47:19.950Z,9.47
2018-12-14T13:49:48.433Z,9.60
2018-12-14T13:52:16.856Z,8.50
2018-12-14T13:54:45.276Z,9.60
2018-12-14T13:57:13.686Z,9.40
2018-12-14T13:59:42.141Z,8.40
2018-12-14T14:02:10.564Z,8.40
2018-12-14T14:04:39.005Z,8.97
2018-12-14T14:07:07.430Z,8.20
2018-12-14T14:09:36.008Z,9.17
2018-12-14T14:12:04.532Z,8.90
2018-12-14T14:14:32.941Z,8.97
2018-12-14T14:17:01.599Z,10.20
2018-12-14T14:19:31.022Z,10.13
2018-12-14T14:21:59.422Z,10.63
2018-12-14T14:24:27.822Z,10.63
2018-12-14T14:26:56.241Z,11.20
2018-12-14T14:29:24.707Z,10.40
2018-12-14T14:31:53.120Z,11.18
2018-12-14T14:34:21.575Z,10.13
2018-12-14T14:36:49.971Z,10.00
2018-12-14T14:39:18.474Z,10.73
2018-12-14T14:41:46.899Z,10.47
2018-12-14T14:44:15.321Z,10.77
2018-12-14T14:46:43.741Z,10.97
2018-12-14T14:49:12.231Z,11.30
2018-12-14T14:51:40.929Z,11.33
2018-12-14T14:54:09.388Z,9.50
2018-12-14T14:56:38.052Z,10.27
2018-12-14T14:59:06.602Z,9.97
2018-12-14T15:01:35.154Z,10.67
2018-12-14T15:04:03.609Z,9.53
2018-12-14T15:06:32.109Z,10.83
2018-12-14T15:09:00.732Z,10.47
2018-12-14T15:11:29.197Z,10.50
2018-12-14T15:13:57.619Z,11.27
2018-12-14T15:16:26.048Z,10.87
2018-12-14T15:18:54.434Z,10.87
2018-12-14T15:21:22.855Z,11.87
2018-12-14T15:23:51.247Z,12.20
2018-12-14T15:26:19.703Z,15.80
2018-12-14T15:28:48.136Z,14.67
2018-12-14T15:31:16.546Z,12.90
2018-12-14T15:33:44.966Z,12.60
2018-12-14T15:36:13.510Z,12.67
2018-12-14T15:38:41.926Z,11.00
2018-12-14T15:41:10.346Z,12.17
2018-12-14T15:43:38.773Z,11.30
2018-12-14T15:46:07.184Z,10.57
2018-12-14T15:48:35.590Z,10.57
2018-12-14T15:51:04.024Z,11.53
2018-12-14T15:53:32.493Z,11.00
2018-12-14T15:56:00.936Z,12.00
2018-12-14T15:58:29.358Z,11.80
2018-12-14T16:00:57.778Z,12.53
2018-12-14T16:03:26.189Z,13.17
2018-12-14T16:05:54.655Z,12.07
2018-12-14T16:08:23.052Z,11.10
2018-12-14T16:10:51.510Z,12.53
2018-12-14T16:13:19.939Z,12.07
2018-12-14T16:15:48.385Z,12.43
2018-12-14T16:18:16.798Z,12.87
2018-12-14T16:20:45.250Z,10.97
2018-12-14T16:23:13.859Z,13.63
2018-12-14T16:25:42.315Z,11.93
2018-12-14T16:28:10.795Z,11.97
2018-12-14T16:30:39.414Z,11.50
2018-12-14T16:33:07.862Z,10.63
2018-12-14T16:35:36.264Z,10.33
2018-12-14T16:38:04.663Z,11.30
2018-12-14T16:40:33.118Z,10.93
2018-12-14T16:43:02.135Z,10.33
2018-12-14T16:45:32.718Z,10.23
2018-12-14T16:48:01.819Z,9.83
2018-12-14T16:50:30.246Z,10.33
2018-12-14T16:52:58.909Z,11.60
2018-12-14T16:55:27.330Z,13.23
2018-12-14T16:57:55.864Z,9.27
2018-12-14T17:00:25.322Z,9.40
2018-12-14T17:02:54.031Z,10.37
2018-12-14T17:05:22.482Z,10.30
2018-12-14T17:07:50.957Z,8.70
2018-12-14T17:10:19.456Z,10.10
2018-12-14T17:12:47.902Z,9.60
2018-12-14T17:15:16.308Z,9.77
2018-12-14T17:17:44.753Z,8.57
2018-12-14T17:20:13.237Z,9.90
2018-12-14T17:22:41.734Z,10.90
2018-12-14T17:25:10.402Z,11.20
2018-12-14T17:27:38.826Z,10.20
2018-12-14T17:30:08.595Z,10.30
2018-12-14T17:32:39.211Z,11.17
2018-12-14T17:35:08.727Z,9.60
2018-12-14T17:37:37.167Z,10.20
2018-12-14T17:40:05.774Z,10.63
2018-12-14T17:42:34.482Z,9.47
2018-12-14T17:45:03.067Z,9.27
2018-12-14T17:47:31.490Z,11.17
2018-12-14T17:49:59.966Z,11.07
2018-12-14T17:52:28.370Z,9.83
2018-12-14T17:54:56.872Z,10.67
2018-12-14T17:57:25.266Z,10.93
2018-12-14T17:59:53.727Z,9.47
2018-12-14T18:02:22.190Z,9.87
2018-12-14T18:04:50.596Z,11.70
2018-12-14T18:07:19.093Z,12.13
2018-12-14T18:09:47.498Z,10.00
2018-12-14T18:12:15.958Z,9.20
2018-12-14T18:14:44.906Z,9.47
2018-12-14T18:17:13.353Z,9.43
2018-12-14T18:19:42.222Z,8.23
2018-12-14T18:22:10.668Z,9.10
2018-12-14T18:24:39.110Z,10.17
2018-12-14T18:27:07.532Z,8.27
2018-12-14T18:29:36.096Z,8.87
2018-12-14T18:32:04.685Z,10.53
2018-12-14T18:34:33.113Z,9.87
2018-12-14T18:37:01.513Z,11.43
2018-12-14T18:39:29.883Z,10.33
2018-12-14T18:41:58.302Z,9.13
2018-12-14T18:44:26.913Z,9.97
2018-12-14T18:46:55.366Z,11.90
2018-12-14T18:49:23.843Z,10.53
2018-12-14T18:51:52.228Z,11.07
2018-12-14T18:54:20.715Z,9.40
2018-12-14T18:56:49.220Z,10.67
2018-12-14T18:59:17.993Z,11.27
2018-12-14T19:01:46.435Z,10.20
2018-12-14T19:04:14.931Z,9.47
2018-12-14T19:06:43.420Z,9.73
2018-12-14T19:09:11.860Z,10.27
2018-12-14T19:11:40.254Z,10.50
2018-12-14T19:14:08.795Z,10.60
2018-12-14T19:16:37.161Z,10.60
2018-12-14T19:19:05.771Z,10.30
2018-12-14T19:21:34.195Z,10.97
2018-12-14T19:24:02.601Z,10.57
2018-12-14T19:26:31.050Z,11.37
2018-12-14T19:28:59.441Z,11.33
2018-12-14T19:31:27.910Z,9.33
2018-12-14T19:33:56.310Z,11.07
2018-12-14T19:36:24.702Z,10.10
2018-12-14T19:38:53.106Z,9.90
2018-12-14T19:41:21.541Z,14.93
2018-12-14T19:43:49.921Z,10.33
2018-12-14T19:46:18.346Z,10.10
2018-12-14T19:48:46.742Z,9.87
2018-12-14T19:51:15.154Z,10.63
2018-12-14T19:53:43.560Z,10.77
2018-12-14T19:56:12.015Z,11.03
2018-12-14T19:58:40.437Z,10.60
2018-12-14T20:01:08.837Z,10.40
2018-12-14T20:03:37.373Z,10.70
2018-12-14T20:06:05.782Z,11.10
2018-12-14T20:08:34.185Z,9.63
2018-12-14T20:11:02.630Z,10.50
2018-12-14T20:13:31.117Z,9.90
2018-12-14T20:15:59.808Z,11.00
2018-12-14T20:18:28.250Z,10.47
2018-12-14T20:20:57.163Z,10.60
2018-12-14T20:23:25.677Z,10.40
2018-12-14T20:25:54.101Z,10.40
2018-12-14T20:28:22.524Z,10.27
2018-12-14T20:30:50.933Z,10.33
2018-12-14T20:33:19.357Z,9.03
2018-12-14T20:35:47.752Z,10.80
2018-12-14T20:38:16.186Z,10.93
2018-12-14T20:40:44.573Z,10.53
2018-12-14T20:43:12.953Z,10.03
2018-12-14T20:45:41.424Z,11.93
2018-12-14T20:48:09.809Z,10.37
2018-12-14T20:50:38.231Z,9.30
2018-12-14T20:53:06.619Z,10.73
2018-12-14T20:55:35.030Z,10.67
2018-12-14T20:58:03.554Z,10.80
2018-12-14T21:00:31.974Z,11.07
2018-12-14T21:03:00.328Z,11.87
2018-12-14T21:05:28.773Z,10.93
2018-12-14T21:07:57.166Z,10.30
2018-12-14T21:10:25.556Z,11.40
2018-12-14T21:12:53.990Z,12.07
2018-12-14T21:15:22.387Z,11.17
2018-12-14T21:17:50.777Z,10.20
2018-12-14T21:20:19.213Z,10.13
2018-12-14T21:22:47.622Z,9.87
2018-12-14T21:25:15.984Z,10.73
2018-12-14T21:27:44.386Z,9.93
2018-12-14T21:30:12.794Z,10.13
2018-12-14T21:32:41.229Z,10.40
2018-12-14T21:35:09.846Z,10.27
2018-12-14T21:37:38.274Z,10.30
2018-12-14T21:40:07.592Z,10.37
2018-12-14T21:42:36.001Z,10.53
2018-12-14T21:45:05.268Z,10.07
2018-12-14T21:47:33.668Z,9.20
2018-12-14T21:50:02.050Z,9.57
2018-12-14T21:52:30.481Z,9.87
2018-12-14T21:54:58.878Z,9.60
2018-12-14T21:57:27.293Z,9.60
2018-12-14T21:59:55.722Z,9.77
2018-12-14T22:02:24.146Z,9.27
2018-12-14T22:04:52.689Z,9.67
2018-12-14T22:07:21.074Z,9.50
2018-12-14T22:09:49.514Z,9.43
2018-12-14T22:12:17.902Z,10.00
2018-12-14T22:14:46.426Z,9.10
2018-12-14T22:17:14.825Z,9.57
2018-12-14T22:19:44.306Z,8.43
2018-12-14T22:22:12.711Z,9.57
2018-12-14T22:24:41.109Z,9.53
2018-12-14T22:27:09.502Z,10.40
2018-12-14T22:29:37.958Z,9.73
2018-12-14T22:32:06.509Z,10.63
2018-12-14T22:34:34.919Z,9.60
2018-12-14T22:37:03.459Z,9.80
2018-12-14T22:39:32.278Z,9.83
2018-12-14T22:42:00.725Z,10.47
2018-12-14T22:44:29.153Z,9.80
2018-12-14T22:46:57.555Z,9.73
2018-12-14T22:49:25.945Z,10.23
2018-12-14T22:51:54.387Z,9.57
2018-12-14T22:54:22.809Z,9.40
2018-12-14T22:56:51.222Z,9.27
2018-12-14T22:59:19.682Z,9.83
2018-12-14T23:01:48.086Z,9.53
2018-12-14T23:04:16.494Z,9.50
2018-12-14T23:06:45.061Z,10.23
2018-12-14T23:09:13.463Z,11.43
2018-12-14T23:11:41.887Z,10.27
2018-12-14T23:14:10.353Z,9.70
2018-12-14T23:16:38.767Z,9.37
2018-12-14T23:19:07.202Z,9.20
2018-12-14T23:21:35.596Z,10.60
2018-12-14T23:24:04.039Z,10.70
2018-12-14T23:26:32.447Z,10.10
2018-12-14T23:29:00.863Z,10.20
2018-12-14T23:31:29.326Z,10.37
2018-12-14T23:33:57.790Z,8.80
2018-12-14T23:36:26.165Z,9.43
2018-12-14T23:38:54.577Z,9.90
2018-12-14T23:41:22.970Z,9.20
2018-12-14T23:43:51.454Z,9.80
2018-12-14T23:46:19.846Z,9.73
2018-12-14T23:48:48.275Z,10.60
2018-12-14T23:51:16.747Z,9.83
2018-12-14T23:53:45.170Z,9.70
2018-12-14T23:56:13.581Z,9.20
2018-12-14T23:58:41.970Z,10.60
